createdAt,value
2023-01-21T00:03:52.189Z,76.40
2023-01-21T00:07:55.500Z,70.70
2023-01-21T00:12:03.860Z,67.50
2023-01-21T00:16:07.750Z,58.30
2023-01-21T00:20:13.820Z,53.10
2023-01-21T00:24:18.967Z,58.10
2023-01-21T00:28:22.793Z,59.00
2023-01-21T00:32:26.760Z,54.10
2023-01-21T00:36:30.285Z,54.70
2023-01-21T00:40:33.791Z,58.30
2023-01-21T00:44:40.832Z,63.50
2023-01-21T00:48:46.095Z,64.60
2023-01-21T00:52:49.816Z,76.30
2023-01-21T00:57:09.853Z,55.90
2023-01-21T01:01:19.808Z,57.20
2023-01-21T01:05:24.408Z,50.90
2023-01-21T01:09:30.422Z,53.90
2023-01-21T01:14:12.663Z,46.90
2023-01-21T01:18:17.456Z,43.90
2023-01-21T01:22:20.794Z,51.40
2023-01-21T01:26:25.333Z,43.70
2023-01-21T01:30:29.727Z,53.60
2023-01-21T01:34:33.216Z,53.00
2023-01-21T01:38:36.530Z,39.60
2023-01-21T01:42:40.123Z,41.00
2023-01-21T01:46:47.880Z,39.70
2023-01-21T01:50:51.682Z,47.00
2023-01-21T01:55:19.226Z,47.10
2023-01-21T02:04:00.521Z,45.30
2023-01-21T02:08:33.635Z,38.30
2023-01-21T02:12:41.146Z,43.50
2023-01-21T02:17:25.727Z,46.30
2023-01-21T02:21:50.924Z,49.00
2023-01-21T02:32:16.527Z,36.20
2023-01-21T02:36:21.995Z,40.00
2023-01-21T02:41:21.988Z,44.90
2023-01-21T02:45:33.121Z,42.20
2023-01-21T02:49:46.405Z,38.50
2023-01-21T02:59:00.417Z,55.30
2023-01-21T03:03:12.131Z,45.70
2023-01-21T03:08:33.001Z,41.70
2023-01-21T03:12:42.683Z,45.40
2023-01-21T03:17:32.180Z,38.20
2023-01-21T03:21:36.999Z,41.20
2023-01-21T03:25:41.156Z,45.00
2023-01-21T03:29:49.977Z,45.10
2023-01-21T03:34:01.466Z,53.40
2023-01-21T03:38:55.755Z,39.90
2023-01-21T03:42:59.340Z,41.40
2023-01-21T03:47:17.739Z,44.40
2023-01-21T03:51:53.500Z,37.00
2023-01-21T03:55:56.535Z,42.70
2023-01-21T03:59:59.577Z,40.50
2023-01-21T04:04:02.474Z,38.10
2023-01-21T04:08:05.795Z,42.10
2023-01-21T04:12:11.130Z,50.80
2023-01-21T04:17:13.328Z,41.70
2023-01-21T04:21:17.439Z,40.20
2023-01-21T04:25:21.255Z,47.20
2023-01-21T04:29:24.042Z,38.60
2023-01-21T04:33:41.275Z,42.00
2023-01-21T04:37:44.997Z,48.00
2023-01-21T04:41:51.065Z,41.70
2023-01-21T04:45:54.768Z,31.40
2023-01-21T04:50:12.357Z,38.70
2023-01-21T04:54:15.409Z,43.00
2023-01-21T04:58:20.686Z,33.60
2023-01-21T05:03:18.244Z,40.30
2023-01-21T05:07:21.844Z,36.00
2023-01-21T05:11:25.068Z,47.70
2023-01-21T05:15:29.016Z,43.80
2023-01-21T05:19:33.369Z,40.80
2023-01-21T05:23:36.514Z,35.50
2023-01-21T05:28:02.082Z,39.40
2023-01-21T05:32:05.855Z,35.50
2023-01-21T05:36:10.200Z,37.00
2023-01-21T05:40:16.513Z,35.40
2023-01-21T05:44:19.790Z,32.10
2023-01-21T05:48:23.793Z,35.50
2023-01-21T05:52:26.762Z,33.50
2023-01-21T05:56:29.965Z,33.20
2023-01-21T06:00:33.072Z,33.40
2023-01-21T06:04:35.953Z,25.10
2023-01-21T06:09:04.580Z,33.20
2023-01-21T06:13:08.538Z,35.10
2023-01-21T06:17:11.584Z,32.30
2023-01-21T06:21:14.669Z,39.50
2023-01-21T06:25:17.656Z,29.20
2023-01-21T06:29:20.753Z,34.30
2023-01-21T06:33:23.660Z,32.60
2023-01-21T06:37:26.857Z,31.40
2023-01-21T06:41:37.100Z,37.90
2023-01-21T06:45:40.140Z,34.70
2023-01-21T06:50:12.561Z,37.60
2023-01-21T06:54:15.528Z,26.70
2023-01-21T06:58:18.304Z,30.80
2023-01-21T07:02:21.419Z,31.90
2023-01-21T07:06:25.723Z,32.00
2023-01-21T07:10:28.740Z,29.20
2023-01-21T07:14:31.742Z,37.20
2023-01-21T07:18:34.822Z,36.00
2023-01-21T07:22:39.264Z,31.80
2023-01-21T07:26:43.279Z,32.80
2023-01-21T07:31:38.175Z,26.40
2023-01-21T07:35:41.810Z,26.60
2023-01-21T07:40:00.699Z,29.80
2023-01-21T07:44:03.868Z,29.80
2023-01-21T07:48:07.577Z,31.80
2023-01-21T07:52:40.545Z,34.40
2023-01-21T07:56:45.223Z,28.60
2023-01-21T08:00:48.172Z,31.00
2023-01-21T08:04:59.910Z,28.70
2023-01-21T08:09:05.502Z,28.80
2023-01-21T08:13:12.104Z,26.00
2023-01-21T08:17:15.369Z,35.60
2023-01-21T08:21:22.262Z,24.80
2023-01-21T08:25:25.747Z,23.60
2023-01-21T08:29:29.211Z,23.50
2023-01-21T08:33:32.010Z,29.80
2023-01-21T08:37:35.045Z,28.10
2023-01-21T08:42:36.566Z,25.30
2023-01-21T08:46:39.867Z,30.60
2023-01-21T08:50:42.919Z,30.60
2023-01-21T08:54:45.917Z,24.90
2023-01-21T08:58:56.308Z,30.00
2023-01-21T09:03:01.510Z,24.70
2023-01-21T09:07:04.776Z,27.50
2023-01-21T09:11:10.204Z,24.80
2023-01-21T09:15:13.108Z,23.20
2023-01-21T09:19:25.830Z,30.10
2023-01-21T09:23:32.268Z,21.40
2023-01-21T09:27:35.052Z,15.00
2023-01-21T09:31:42.723Z,17.00
2023-01-21T09:35:45.502Z,21.70
2023-01-21T09:39:53.199Z,21.30
2023-01-21T09:44:07.040Z,18.10
2023-01-21T09:48:20.798Z,23.70
2023-01-21T09:52:30.641Z,16.30
2023-01-21T09:56:58.893Z,19.40
2023-01-21T10:01:30.079Z,16.50
2023-01-21T10:06:40.880Z,16.90
2023-01-21T10:10:59.445Z,18.50
2023-01-21T10:15:32.134Z,18.40
2023-01-21T10:19:50.544Z,15.70
2023-01-21T10:24:26.372Z,21.20
2023-01-21T10:28:33.388Z,9.90
2023-01-21T10:32:39.927Z,9.40
2023-01-21T10:37:18.617Z,17.40
2023-01-21T10:41:49.956Z,14.50
2023-01-21T10:46:01.540Z,12.50
2023-01-21T10:50:13.839Z,10.40
2023-01-21T10:54:28.153Z,11.00
2023-01-21T10:58:41.767Z,15.80
2023-01-21T11:24:53.684Z,15.50
2023-01-21T11:29:27.719Z,9.10
2023-01-21T11:33:30.955Z,8.50
2023-01-21T11:37:39.843Z,9.50
2023-01-21T11:41:52.384Z,11.30
2023-01-21T11:45:57.251Z,8.80
2023-01-21T11:50:23.143Z,11.20
2023-01-21T11:54:25.924Z,7.20
2023-01-21T11:59:25.664Z,8.50
2023-01-21T12:03:42.915Z,8.70
2023-01-21T12:07:51.545Z,9.20
2023-01-21T12:12:26.548Z,9.90
2023-01-21T12:17:12.056Z,13.40
2023-01-21T12:21:39.306Z,6.90
2023-01-21T12:30:12.864Z,7.20
2023-01-21T12:34:24.753Z,7.80
2023-01-21T12:38:38.989Z,8.80
2023-01-21T12:42:48.471Z,7.40
2023-01-21T12:47:00.221Z,8.20
2023-01-21T12:51:10.166Z,10.80
2023-01-21T12:55:42.403Z,20.50
2023-01-21T12:59:59.635Z,8.20
2023-01-21T13:04:35.192Z,8.40
2023-01-21T13:09:06.923Z,9.00
2023-01-21T13:18:20.551Z,10.70
2023-01-21T13:23:26.242Z,7.40
2023-01-21T13:28:18.464Z,6.40
2023-01-21T13:32:29.548Z,7.60
2023-01-21T13:36:54.461Z,7.80
2023-01-21T13:41:35.388Z,6.60
2023-01-21T13:46:03.364Z,7.60
2023-01-21T13:50:15.403Z,7.50
2023-01-21T13:54:42.821Z,7.90
2023-01-21T14:03:01.573Z,7.00
2023-01-21T14:07:12.495Z,8.30
2023-01-21T14:11:25.462Z,8.00
2023-01-21T14:20:54.648Z,11.50
2023-01-21T14:25:01.916Z,5.90
2023-01-21T14:29:33.326Z,9.00
2023-01-21T14:34:06.656Z,11.10
2023-01-21T14:38:48.090Z,10.40
2023-01-21T14:42:55.211Z,11.90
2023-01-21T14:47:39.169Z,12.20
2023-01-21T14:56:32.605Z,7.50
2023-01-21T15:00:37.490Z,6.70
2023-01-21T15:04:53.700Z,8.70
2023-01-21T15:09:00.485Z,6.70
2023-01-21T15:13:26.565Z,9.90
2023-01-21T15:17:54.804Z,4.80
2023-01-21T15:22:00.007Z,6.80
2023-01-21T15:26:09.183Z,8.00
2023-01-21T15:30:15.912Z,6.70
2023-01-21T15:34:21.869Z,6.80
2023-01-21T15:38:26.337Z,7.40
2023-01-21T15:42:39.780Z,7.80
2023-01-21T15:47:08.439Z,6.70
2023-01-21T15:51:25.742Z,9.30
2023-01-21T15:55:31.785Z,4.40
2023-01-21T15:59:55.872Z,7.80
2023-01-21T16:04:25.359Z,8.70
2023-01-21T16:08:53.857Z,6.60
2023-01-21T16:13:23.717Z,8.00
2023-01-21T16:17:45.651Z,6.60
2023-01-21T16:21:54.328Z,6.60
2023-01-21T16:25:57.504Z,5.90
2023-01-21T16:30:35.120Z,6.70
2023-01-21T16:34:41.750Z,8.00
2023-01-21T16:38:47.311Z,13.00
2023-01-21T16:43:07.056Z,8.50
2023-01-21T16:47:32.792Z,10.70
2023-01-21T16:51:41.452Z,9.10
2023-01-21T16:55:49.247Z,11.30
2023-01-21T16:59:55.975Z,14.60
2023-01-21T17:04:01.494Z,20.40
2023-01-21T17:08:11.646Z,20.60
2023-01-21T17:12:26.293Z,21.00
2023-01-21T17:16:34.138Z,18.60
2023-01-21T17:20:44.335Z,19.00
2023-01-21T17:25:03.015Z,17.40
2023-01-21T17:29:11.153Z,16.80
2023-01-21T17:33:34.501Z,18.00
2023-01-21T17:38:01.608Z,12.50
2023-01-21T17:46:14.268Z,15.00
2023-01-21T17:50:30.331Z,16.90
2023-01-21T17:54:35.673Z,12.50
2023-01-21T17:58:48.458Z,11.90
2023-01-21T18:02:51.733Z,14.60
2023-01-21T18:06:56.402Z,20.50
2023-01-21T18:10:59.821Z,23.10
2023-01-21T18:15:02.977Z,26.60
2023-01-21T18:19:11.839Z,17.50
2023-01-21T18:23:18.031Z,12.60
2023-01-21T18:27:25.720Z,11.40
2023-01-21T18:31:29.421Z,13.80
2023-01-21T18:35:33.182Z,13.80
2023-01-21T18:39:36.750Z,12.40
2023-01-21T18:43:42.087Z,12.90
2023-01-21T18:47:49.109Z,13.30
2023-01-21T18:51:52.814Z,10.70
2023-01-21T18:55:56.408Z,15.40
2023-01-21T19:00:18.752Z,14.40
2023-01-21T19:04:21.846Z,15.50
2023-01-21T19:08:27.921Z,18.40
2023-01-21T19:12:36.694Z,17.10
2023-01-21T19:17:01.843Z,19.50
2023-01-21T19:21:05.976Z,16.30
2023-01-21T19:25:23.706Z,20.70
2023-01-21T19:34:21.217Z,22.10
2023-01-21T19:38:55.311Z,20.20
2023-01-21T19:47:52.695Z,13.10
2023-01-21T19:51:55.685Z,16.80
2023-01-21T19:56:07.592Z,18.90
2023-01-21T20:00:23.551Z,19.60
2023-01-21T20:04:26.386Z,19.50
2023-01-21T20:08:30.897Z,19.10
2023-01-21T20:12:34.304Z,17.50
2023-01-21T20:16:47.172Z,20.90
2023-01-21T20:20:54.930Z,24.80
2023-01-21T20:24:57.981Z,25.30
2023-01-21T20:29:16.825Z,25.80
2023-01-21T20:33:27.459Z,35.80
2023-01-21T20:37:30.600Z,34.30
2023-01-21T20:41:34.010Z,36.40
2023-01-21T20:45:47.876Z,22.20
2023-01-21T20:49:50.955Z,30.20
2023-01-21T20:53:53.867Z,26.60
2023-01-21T20:58:00.197Z,27.70
2023-01-21T21:02:03.244Z,28.10
2023-01-21T21:06:15.684Z,30.90
2023-01-21T21:10:26.758Z,28.50
2023-01-21T21:14:29.595Z,29.30
2023-01-21T21:18:32.723Z,37.40
2023-01-21T21:22:35.924Z,29.20
2023-01-21T21:26:41.227Z,32.40
2023-01-21T21:30:44.960Z,33.60
2023-01-21T21:34:52.794Z,34.70
2023-01-21T21:38:56.106Z,32.00
2023-01-21T21:43:18.782Z,36.30
2023-01-21T21:47:40.197Z,42.20
2023-01-21T21:51:45.613Z,31.70
2023-01-21T21:55:49.592Z,33.00
2023-01-21T22:04:29.232Z,37.00
2023-01-21T22:08:39.012Z,33.80
2023-01-21T22:12:48.730Z,39.20
2023-01-21T22:16:52.049Z,38.90
2023-01-21T22:21:07.210Z,38.20
2023-01-21T22:25:11.934Z,36.90
2023-01-21T22:29:14.749Z,43.00
2023-01-21T22:33:18.007Z,43.10
2023-01-21T22:37:20.823Z,35.60
2023-01-21T22:41:26.190Z,33.40
2023-01-21T22:45:28.957Z,40.50
2023-01-21T22:49:31.770Z,37.50
2023-01-21T22:53:34.967Z,39.00
2023-01-21T22:57:37.816Z,46.40
2023-01-21T23:01:44.886Z,46.20
2023-01-21T23:05:47.802Z,40.60
2023-01-21T23:09:55.025Z,33.80
2023-01-21T23:13:57.965Z,41.20
2023-01-21T23:18:00.837Z,34.10
2023-01-21T23:22:03.752Z,40.50
2023-01-21T23:26:09.035Z,56.20
2023-01-21T23:30:15.110Z,67.20
2023-01-21T23:34:20.492Z,36.80
2023-01-21T23:38:23.499Z,47.00
2023-01-21T23:42:54.007Z,43.80
2023-01-21T23:46:57.173Z,43.00
2023-01-21T23:51:05.400Z,45.50
2023-01-21T23:55:10.361Z,41.40
